Terminal Aerodrome Forecast
Issued by NWS Sioux Falls, SD

Home | Current Version | Previous Version | Graphics & Text | Print | Product List | Glossary On
Versions: 1 2 3 4 5 6 7 8 9 10 11 12 13 14
080
FTUS43 KFSD 261124
TAFHON
TAF
KHON 261124Z 2612/2712 27007KT P6SM FEW250
     FM261500 30009KT P6SM FEW250
     FM262200 25007KT P6SM SCT060
     FM270000 VRB04KT P6SM BKN060
     FM270500 18007KT P6SM BKN150=

USA.gov is the U.S. government's official web portal to all federal, state and local government web resources and services.